Etusivu
METAR-TAF:

METAR-TAF

Lentoasemat :

Esbjerg, Tanska

Leveyspiiri: 55-32N, Pituuspiiri: 008-34E, korkeus merenpinnasta: 30 m

Tämänhetkinen sää

Tämä raportti tehtiin 29 minuuttia sitten, kello 14.50 UTC
Tuuli 7 kn luoteesta
Lämpötila 12°C
Kosteus 76%
Ilmanpaine 1027 hPa
Näkyvyys 10 km tai enemmän

METAR: EKEB 201450Z AUTO 31007KT 9999NDV FEW024/// 12/08 Q1027

Aika: 17:19 (15:19 UTC)

Sääennuste

Tämä raportti tehtiin 52 minuuttia sitten, kello 14.27 UTC
Ennuste voimassa 20. päivästä klo 15 UTC - 20. päivään klo 22 UTC
Tuuli 8 kn lännestä/luoteesta
Näkyvyys 10 km tai enemmän
Muutamia pilviä 2000 ft:n korkeudessa

TAF: EKEB 201427Z 2015/2022 30008KT 9999 FEW020

Säähavainnot ja -ennusteet yli 4000 lentoasemalta (METAR- ja TAF-raportit).

Käytössä olevat sääasemat on merkitty karttaan keltaisilla ja punaisilla pisteillä.

Aseta hiiri pisteen päälle nähdäksesi sääaseman nimen.

Klikkaa sitten nähdäksesi säähavainnot ja -ennusteet.

Kartan vaihtaminen: klikkaa mustalla rastilla varustettuja vihreitä pisteitä, niin voit zoomata sisään; viivalla varustettua vihreää pistettä, niin voit zoomata ulos tai vihreitä nuolia, niin pääset viereisille kartoille.


METAR-TAF: